Time;durP1;ratioP1;P1;durP2;ratioP2;P2;SDS_P1;SDS_P2;PMS_P1;PMS_P2;Temp;Humidity;BMP_temperature;BMP_pressure;BME280_temperature;BME280_humidity;BME280_pressure;Samples;Min_cycle;Max_cycle;Signal;HPM_P1;HPM_P2
2023/05/20 00:01:38;;;;;;;4.63;1.70;;;;;;;15.49;67.31;101171.63;8280385;28;20532;-67
2023/05/20 00:05:38;;;;;;;4.50;1.95;;;;;;;15.43;67.81;101164.06;8264472;28;20081;-68
2023/05/20 00:09:39;;;;;;;4.82;1.75;;;;;;;15.41;67.56;101171.53;8265074;28;20042;-68
2023/05/20 00:13:39;;;;;;;6.40;2.42;;;;;;;15.42;67.45;101167.81;8279372;28;20052;-68
2023/05/20 00:17:40;;;;;;;5.68;1.73;;;;;;;15.27;68.18;101165.75;8292621;28;20045;-68
2023/05/20 00:21:40;;;;;;;9.23;1.90;;;;;;;15.19;68.72;101169.25;8291955;28;20139;-68
2023/05/20 00:25:41;;;;;;;6.05;2.22;;;;;;;15.17;68.80;101176.72;8288522;28;20042;-68
2023/05/20 00:29:41;;;;;;;2.78;1.60;;;;;;;15.14;68.88;101179.75;8291218;28;20041;-68
2023/05/20 00:33:42;;;;;;;4.47;2.10;;;;;;;15.01;69.76;101172.97;8291853;28;20540;-68
2023/05/20 00:37:42;;;;;;;4.82;1.88;;;;;;;14.96;69.81;101170.72;8291447;28;20042;-68
2023/05/20 00:41:43;;;;;;;3.80;1.65;;;;;;;14.87;70.20;101168.91;8291197;28;20584;-68
2023/05/20 00:45:43;;;;;;;5.53;2.00;;;;;;;14.82;70.18;101164.94;8290837;28;20041;-68
2023/05/20 00:49:45;;;;;;;3.90;1.83;;;;;;;14.77;70.78;101161.78;8289983;28;20049;-68
2023/05/20 00:53:46;;;;;;;3.20;1.63;;;;;;;14.58;72.18;101162.72;8291040;28;20048;-68
2023/05/20 00:57:48;;;;;;;3.08;2.03;;;;;;;14.51;72.81;101156.19;8286789;28;20038;-68
2023/05/20 01:01:48;;;;;;;5.57;1.77;;;;;;;14.45;73.61;101153.22;8290682;28;20117;-68
2023/05/20 01:05:49;;;;;;;7.25;1.90;;;;;;;14.32;73.85;101150.84;8290575;28;20034;-68
2023/05/20 01:09:51;;;;;;;5.68;1.88;;;;;;;14.36;73.62;101151.41;8289064;28;20492;-68
2023/05/20 01:13:59;;;;;;;4.80;1.88;;;;;;;14.27;73.57;101147.69;8292450;28;20061;-68
2023/05/20 01:18:04;;;;;;;3.25;1.67;;;;;;;14.24;74.18;101150.72;8292152;28;20030;-68
2023/05/20 01:22:07;;;;;;;3.83;1.67;;;;;;;14.26;73.40;101150.56;8291847;28;20076;-64
2023/05/20 01:26:12;;;;;;;6.18;2.17;;;;;;;14.29;72.90;101151.13;8292316;28;20068;-64
2023/05/20 01:30:13;;;;;;;4.80;2.13;;;;;;;14.32;72.48;101145.38;8292381;28;20432;-64
2023/05/20 01:34:14;;;;;;;3.22;2.17;;;;;;;14.32;72.43;101141.81;8292080;28;20037;-63
2023/05/20 01:38:18;;;;;;;2.70;1.52;;;;;;;14.37;71.83;101136.78;8291304;28;20042;-64
2023/05/20 01:42:19;;;;;;;5.63;2.10;;;;;;;14.36;72.05;101135.91;8291386;28;20432;-64
2023/05/20 01:46:21;;;;;;;5.60;2.17;;;;;;;14.30;72.47;101131.06;8290212;28;20723;-64
2023/05/20 01:50:22;;;;;;;2.70;1.70;;;;;;;14.09;74.33;101126.84;8272446;28;21234;-64
2023/05/20 01:54:22;;;;;;;4.15;1.98;;;;;;;13.59;77.09;101121.66;8291572;28;20049;-63
2023/05/20 01:58:23;;;;;;;3.65;2.30;;;;;;;13.40;78.53;101128.97;8291399;28;20408;-63
2023/05/20 02:02:24;;;;;;;7.78;2.40;;;;;;;13.26;79.90;101121.25;8291237;28;20033;-63
2023/05/20 02:06:25;;;;;;;3.00;1.98;;;;;;;13.17;79.88;101116.66;8290897;28;20507;-63
2023/05/20 02:10:25;;;;;;;4.85;2.10;;;;;;;13.14;80.27;101119.66;8290786;28;20041;-63
2023/05/20 02:14:25;;;;;;;5.75;2.38;;;;;;;13.12;80.06;101124.41;8291248;28;20040;-63
2023/05/20 02:18:26;;;;;;;4.72;2.35;;;;;;;13.05;79.81;101128.69;8290650;28;20037;-63
2023/05/20 02:22:26;;;;;;;3.95;2.33;;;;;;;12.98;80.98;101127.47;8290450;28;20112;-63
2023/05/20 02:26:27;;;;;;;9.68;2.60;;;;;;;13.02;80.32;101124.38;8290183;28;20465;-67
2023/05/20 02:30:28;;;;;;;5.28;2.65;;;;;;;12.89;80.92;101118.34;8290765;28;20045;-67
2023/05/20 02:34:30;;;;;;;4.85;2.58;;;;;;;12.90;81.65;101108.34;8291022;28;20450;-67
2023/05/20 02:38:31;;;;;;;7.90;2.63;;;;;;;12.93;81.75;101117.06;8279841;28;20508;-67
2023/05/20 02:42:31;;;;;;;5.50;2.67;;;;;;;12.88;82.10;101118.47;8262472;28;20034;-63
2023/05/20 02:46:32;;;;;;;6.82;2.83;;;;;;;12.79;82.51;101120.19;8265357;28;20146;-63
2023/05/20 02:50:33;;;;;;;4.22;2.50;;;;;;;12.79;83.17;101120.19;8290313;28;20119;-64
2023/05/20 02:54:34;;;;;;;7.05;2.53;;;;;;;12.83;81.86;101105.34;8289468;28;20042;-64
2023/05/20 02:58:34;;;;;;;4.72;2.53;;;;;;;12.83;82.85;101108.03;8290008;28;20049;-63
2023/05/20 03:02:35;;;;;;;8.93;3.20;;;;;;;12.83;82.64;101104.47;8289799;28;20509;-64
2023/05/20 03:06:36;;;;;;;6.80;2.78;;;;;;;12.76;83.01;101100.59;8287728;28;20041;-64
2023/05/20 03:10:38;;;;;;;4.55;2.90;;;;;;;12.80;82.28;101093.88;8288852;28;20599;-64
2023/05/20 03:14:39;;;;;;;4.20;2.17;;;;;;;12.71;82.60;101086.59;8290116;28;20042;-64
2023/05/20 03:18:39;;;;;;;6.20;2.55;;;;;;;12.75;82.36;101093.47;8289718;28;20526;-64
2023/05/20 03:22:40;;;;;;;5.40;2.80;;;;;;;12.80;82.38;101093.88;8294012;28;20038;-64
2023/05/20 03:26:42;;;;;;;6.28;3.25;;;;;;;12.79;82.89;101094.91;8295111;28;20121;-64
2023/05/20 03:30:43;;;;;;;5.70;2.92;;;;;;;12.78;82.93;101093.19;8289046;28;20559;-64
2023/05/20 03:34:44;;;;;;;7.50;3.20;;;;;;;12.86;81.43;101085.19;8296259;28;20451;-63
2023/05/20 03:38:45;;;;;;;5.60;3.00;;;;;;;12.81;82.29;101092.91;8279218;28;20117;-64
2023/05/20 03:42:46;;;;;;;4.97;2.78;;;;;;;12.81;83.33;101092.91;8263544;28;20173;-64
2023/05/20 03:46:47;;;;;;;9.18;3.30;;;;;;;12.68;84.22;101092.28;8261936;28;20047;-64
2023/05/20 03:50:48;;;;;;;6.55;2.78;;;;;;;12.40;85.74;101087.66;8266405;28;20115;-64
2023/05/20 03:54:50;;;;;;;6.88;2.70;;;;;;;12.29;87.02;101095.94;8295402;28;20411;-64
2023/05/20 03:58:50;;;;;;;7.85;3.35;;;;;;;12.18;88.28;101098.72;8294967;28;20472;-68
2023/05/20 04:02:51;;;;;;;3.58;2.67;;;;;;;11.81;91.52;101091.13;8295500;28;20065;-68
2023/05/20 04:06:53;;;;;;;6.07;3.22;;;;;;;11.73;92.69;101092.81;8294924;28;20500;-68
2023/05/20 04:10:55;;;;;;;4.63;2.75;;;;;;;11.98;91.74;101096.94;8294717;28;20507;-68
2023/05/20 04:14:57;;;;;;;7.35;2.85;;;;;;;12.18;90.47;101088.75;8294399;28;20499;-68
2023/05/20 04:18:59;;;;;;;3.88;2.75;;;;;;;12.60;87.34;101097.59;8285991;28;20038;-68
2023/05/20 04:23:00;;;;;;;3.50;2.85;;;;;;;12.93;84.82;101097.22;8283572;28;20424;-68
2023/05/20 04:27:01;;;;;;;4.75;2.83;;;;;;;13.15;83.66;101092.38;8276653;28;20060;-68
2023/05/20 04:31:03;;;;;;;6.85;3.13;;;;;;;13.34;82.21;101103.25;8292765;28;20125;-68
2023/05/20 04:35:10;;;;;;;4.25;3.10;;;;;;;13.47;80.74;101097.50;8288896;28;20049;-67
2023/05/20 04:39:12;;;;;;;6.32;3.33;;;;;;;13.63;80.48;101100.47;8294123;28;20042;-68
2023/05/20 04:43:14;;;;;;;6.72;3.03;;;;;;;13.78;79.77;101096.28;8294046;28;20038;-68
2023/05/20 04:47:15;;;;;;;9.85;3.30;;;;;;;13.96;78.89;101093.69;8293590;28;20037;-68
2023/05/20 04:51:16;;;;;;;5.07;3.28;;;;;;;14.07;78.07;101107.97;8293814;28;20507;-67
2023/05/20 04:55:18;;;;;;;6.43;3.10;;;;;;;14.29;77.80;101102.16;8293574;28;20034;-67
2023/05/20 04:59:19;;;;;;;5.78;3.42;;;;;;;14.48;77.11;101102.06;8293558;28;20062;-63
2023/05/20 05:03:19;;;;;;;5.35;3.00;;;;;;;14.66;77.07;101093.94;8289099;28;20447;-63
2023/05/20 05:07:20;;;;;;;3.72;3.30;;;;;;;14.72;76.76;101099.63;8289777;28;20046;-63
2023/05/20 05:11:22;;;;;;;6.55;3.38;;;;;;;14.86;76.39;101090.97;8290672;28;20041;-63
2023/05/20 05:15:23;;;;;;;6.28;3.47;;;;;;;15.00;75.44;101087.69;8291230;28;20052;-63
2023/05/20 05:19:24;;;;;;;6.10;3.40;;;;;;;15.03;75.65;101076.47;8292508;28;20045;-63
2023/05/20 05:23:26;;;;;;;5.82;3.03;;;;;;;15.10;74.91;101083.00;8290083;28;20113;-63
2023/05/20 05:27:27;;;;;;;6.45;3.50;;;;;;;15.16;74.89;101087.84;8292578;28;20096;-63
2023/05/20 05:31:27;;;;;;;4.53;3.20;;;;;;;15.32;74.83;101074.38;8292947;28;20037;-63
2023/05/20 05:35:28;;;;;;;6.15;3.38;;;;;;;15.40;73.94;101074.47;8292140;28;20042;-64
2023/05/20 05:39:29;;;;;;;8.20;3.60;;;;;;;15.69;74.37;101058.69;8291298;28;20085;-63
2023/05/20 05:43:30;;;;;;;5.00;2.63;;;;;;;15.73;73.34;101058.38;8287699;28;20045;-63
2023/05/20 05:47:31;;;;;;;7.53;3.60;;;;;;;15.74;74.19;101059.03;8279680;28;20056;-64
2023/05/20 05:51:32;;;;;;;5.60;3.60;;;;;;;15.61;74.09;101061.34;8267848;28;20045;-64
2023/05/20 05:55:33;;;;;;;5.15;3.33;;;;;;;15.74;73.24;101067.22;8279713;28;20128;-63
2023/05/20 05:59:34;;;;;;;4.63;3.35;;;;;;;15.71;73.78;101061.25;8285366;28;20131;-63
2023/05/20 06:03:35;;;;;;;5.00;3.22;;;;;;;15.68;73.30;101062.41;8284202;28;20061;-63
2023/05/20 06:07:35;;;;;;;6.85;3.17;;;;;;;15.76;73.88;101067.06;8291213;28;20041;-63
2023/05/20 06:11:36;;;;;;;6.90;3.35;;;;;;;15.94;73.59;101067.00;8282360;28;20046;-63
2023/05/20 06:15:39;;;;;;;5.00;3.92;;;;;;;16.17;73.39;101063.56;8266580;28;20115;-63
2023/05/20 06:19:39;;;;;;;4.13;3.63;;;;;;;16.23;72.59;101064.78;8277333;28;20476;-63
2023/05/20 06:23:40;;;;;;;7.70;4.20;;;;;;;16.30;71.82;101054.91;8279235;28;20042;-63
2023/05/20 06:27:43;;;;;;;5.90;3.53;;;;;;;16.36;71.49;101056.97;8277028;28;20095;-63
2023/05/20 06:31:47;;;;;;;4.43;3.83;;;;;;;16.45;71.23;101066.94;8290027;28;20069;-63
2023/05/20 06:35:47;;;;;;;6.07;3.85;;;;;;;16.59;71.05;101067.16;8287457;28;20045;-63
2023/05/20 06:39:52;;;;;;;9.48;4.10;;;;;;;16.66;70.85;101059.19;8258276;28;20053;-63
2023/05/20 06:43:53;;;;;;;5.10;3.63;;;;;;;16.70;71.44;101052.34;8263976;28;20102;-63
2023/05/20 06:48:13;;;;;;;10.13;3.50;;;;;;;16.66;70.39;101050.97;8281196;28;20141;-67
2023/05/20 06:52:14;;;;;;;5.45;3.78;;;;;;;16.75;70.71;101049.97;8288558;28;20045;-67
2023/05/20 06:56:14;;;;;;;4.50;3.30;;;;;;;16.78;70.54;101044.19;8290263;28;20057;-67
2023/05/20 07:00:15;;;;;;;3.90;3.10;;;;;;;17.03;70.18;101032.28;8294948;28;20165;-67
2023/05/20 07:04:16;;;;;;;7.53;3.63;;;;;;;17.09;69.06;101039.78;8293571;28;20129;-67
2023/05/20 07:08:17;;;;;;;4.50;3.13;;;;;;;17.31;70.03;101039.97;8291955;28;20042;-67
2023/05/20 07:12:18;;;;;;;5.57;3.85;;;;;;;17.19;69.29;101040.47;8295003;28;20046;-67
2023/05/20 07:16:18;;;;;;;4.53;3.08;;;;;;;17.35;69.80;101035.00;8295262;28;20048;-67
2023/05/20 07:20:26;;;;;;;4.13;3.10;;;;;;;17.36;68.93;101025.78;8294138;28;20046;-67
2023/05/20 07:24:27;;;;;;;6.45;3.25;;;;;;;17.87;67.93;101025.38;8294332;28;20045;-67
2023/05/20 07:28:27;;;;;;;9.45;3.47;;;;;;;18.10;67.77;101028.22;8291418;28;20037;-67
2023/05/20 07:32:28;;;;;;;4.60;2.72;;;;;;;18.23;66.91;101021.16;8284664;28;20485;-67
2023/05/20 07:36:29;;;;;;;8.63;3.17;;;;;;;18.41;66.49;101013.56;8287754;28;20411;-67
2023/05/20 07:40:35;;;;;;;7.10;2.83;;;;;;;18.56;66.59;101016.41;8283116;28;20232;-67
2023/05/20 07:44:36;;;;;;;7.40;3.53;;;;;;;18.67;64.99;101011.34;8291528;28;20046;-67
2023/05/20 07:48:37;;;;;;;4.70;3.33;;;;;;;18.69;65.31;101000.22;8269288;28;20038;-63
2023/05/20 07:52:38;;;;;;;4.90;3.50;;;;;;;18.79;66.18;101012.66;8290109;28;20034;-63
2023/05/20 07:56:38;;;;;;;6.32;3.30;;;;;;;19.05;64.93;101007.69;8291342;28;20100;-63
2023/05/20 08:00:41;;;;;;;6.82;2.92;;;;;;;19.06;64.98;101003.91;8290044;28;20049;-63
2023/05/20 08:04:42;;;;;;;4.78;3.38;;;;;;;18.88;65.01;100992.38;8275711;28;20049;-63
2023/05/20 08:08:42;;;;;;;4.63;3.30;;;;;;;19.15;64.92;101001.94;8278620;28;20074;-64
2023/05/20 08:12:50;;;;;;;4.72;3.03;;;;;;;19.18;65.53;101002.44;8282824;28;20065;-63
2023/05/20 08:16:50;;;;;;;6.28;3.72;;;;;;;19.20;63.91;100989.41;8279596;28;20193;-61
2023/05/20 08:20:52;;;;;;;5.57;3.00;;;;;;;19.47;64.95;100990.72;8259154;28;20112;-66
2023/05/20 08:24:53;;;;;;;6.10;3.33;;;;;;;19.73;63.29;100990.28;8281392;28;20600;-67
2023/05/20 08:30:34;;;;;;;6.60;3.20;;;;;;;20.41;63.02;100982.59;8278010;28;20597;-73
2023/05/20 08:34:18;;;;;;;7.95;3.45;;;;;;;20.52;63.92;100982.94;8284929;28;20127;-69
2023/05/20 08:38:19;;;;;;;5.07;3.17;;;;;;;20.49;61.85;100977.00;8275339;28;20518;-68
2023/05/20 08:42:22;;;;;;;4.57;3.22;;;;;;;20.68;61.73;100976.38;8289455;28;20912;-64
2023/05/20 08:46:22;;;;;;;5.93;3.42;;;;;;;20.70;60.70;100974.25;8288802;28;20038;-65
2023/05/20 08:50:23;;;;;;;6.25;3.30;;;;;;;20.83;61.63;100969.75;8281425;28;20046;-69
2023/05/20 08:54:25;;;;;;;7.03;3.33;;;;;;;20.65;61.07;100971.28;8275948;28;20182;-68
2023/05/20 08:58:27;;;;;;;4.28;2.88;;;;;;;20.49;60.91;100963.28;8278030;28;20105;-68
2023/05/20 09:02:27;;;;;;;3.83;2.78;;;;;;;20.55;62.16;100965.22;8283866;28;20499;-69
2023/05/20 09:06:28;;;;;;;3.47;2.90;;;;;;;21.09;61.41;100969.22;8282229;28;20412;-68
2023/05/20 09:10:29;;;;;;;5.10;3.45;;;;;;;21.13;61.70;100970.50;8288702;28;20049;-69
2023/05/20 09:14:30;;;;;;;4.85;3.20;;;;;;;21.32;61.85;100964.34;8285570;28;20621;-68
2023/05/20 09:18:30;;;;;;;3.42;2.92;;;;;;;21.56;60.74;100966.63;8282700;28;20038;-68
2023/05/20 09:22:31;;;;;;;7.28;3.20;;;;;;;21.45;60.82;100958.94;8286863;28;20092;-66
2023/05/20 09:26:32;;;;;;;4.55;3.70;;;;;;;21.54;59.69;100962.38;8285967;28;20045;-66
2023/05/20 09:30:32;;;;;;;7.38;3.20;;;;;;;21.62;60.28;100963.06;8287883;28;20094;-62
2023/05/20 09:34:33;;;;;;;6.60;3.33;;;;;;;21.83;59.17;100960.28;8287906;28;20534;-62
2023/05/20 09:38:38;;;;;;;4.78;3.10;;;;;;;21.77;59.53;100952.84;8287970;28;20064;-59
2023/05/20 09:42:46;;;;;;;5.40;2.83;;;;;;;22.06;59.29;100949.84;8284411;28;20037;-62
2023/05/20 09:46:48;;;;;;;4.97;3.20;;;;;;;22.23;59.03;100953.94;8286716;28;20037;-61
2023/05/20 09:50:50;;;;;;;5.05;3.28;;;;;;;22.44;58.90;100940.03;8288531;28;20040;-63
2023/05/20 09:54:55;;;;;;;3.83;3.22;;;;;;;22.90;58.42;100949.28;8271189;28;20066;-63
2023/05/20 09:58:57;;;;;;;5.53;3.03;;;;;;;24.59;53.89;100944.56;8287372;28;20516;-63
2023/05/20 10:02:58;;;;;;;3.30;2.75;;;;;;;24.10;54.22;100938.84;8287839;28;20488;-63
2023/05/20 10:11:45;;;;;;;7.53;3.40;;;;;;;22.82;58.08;100943.13;8310083;27;20763;-62
2023/05/20 10:15:58;;;;;;;8.27;3.53;;;;;;;22.08;59.59;100946.88;8297691;28;20042;-62
2023/05/20 10:20:00;;;;;;;5.60;3.33;;;;;;;21.88;59.96;100944.03;8286646;28;20557;-62
2023/05/20 10:24:09;;;;;;;6.38;3.65;;;;;;;21.33;60.25;100930.28;8279729;28;20049;-62
2023/05/20 10:28:10;;;;;;;8.93;4.15;;;;;;;21.43;60.80;100933.53;8280217;28;20465;-62
2023/05/20 10:32:10;;;;;;;5.45;3.50;;;;;;;21.47;61.33;100940.31;8280832;28;20120;-62
2023/05/20 10:36:27;;;;;;;5.47;3.80;;;;;;;22.07;60.31;100928.63;8281167;28;20034;-66
2023/05/20 10:40:28;;;;;;;5.97;3.53;;;;;;;22.33;58.53;100932.38;8304270;28;20037;-66
2023/05/20 10:44:39;;;;;;;7.78;3.90;;;;;;;22.22;60.12;100941.22;8310598;28;20042;-66
2023/05/20 10:48:40;;;;;;;4.97;3.72;;;;;;;23.91;55.93;100918.44;8302718;28;20072;-65
2023/05/20 10:52:41;;;;;;;5.20;4.07;;;;;;;23.42;56.84;100920.06;8297081;28;20045;-66
2023/05/20 10:56:51;;;;;;;5.15;3.95;;;;;;;23.49;55.72;100919.00;8299957;28;20050;-66
2023/05/20 11:00:53;;;;;;;4.70;3.88;;;;;;;23.72;56.94;100919.34;8308426;28;20048;-66
2023/05/20 11:04:57;;;;;;;8.63;3.80;;;;;;;23.63;57.54;100919.81;8311999;28;20038;-66
2023/05/20 11:09:04;;;;;;;6.77;4.30;;;;;;;22.84;57.39;100919.78;8302856;28;20046;-66
2023/05/20 11:13:05;;;;;;;10.18;4.13;;;;;;;23.32;57.35;100920.47;8310404;28;20060;-65
2023/05/20 11:17:06;;;;;;;5.65;3.45;;;;;;;24.84;55.77;100907.63;8310723;28;20049;-65
2023/05/20 11:21:07;;;;;;;4.20;3.55;;;;;;;23.81;56.24;100895.97;8294740;28;20073;-65
2023/05/20 11:25:08;;;;;;;5.03;4.07;;;;;;;23.12;56.82;100906.66;8238959;28;20055;-66
2023/05/20 11:29:08;;;;;;;9.25;4.40;;;;;;;22.83;57.86;100904.31;8240730;28;20286;-66
2023/05/20 11:33:11;;;;;;;4.75;3.72;;;;;;;22.55;58.63;100889.84;8286905;28;20076;-65
2023/05/20 11:37:13;;;;;;;8.85;4.07;;;;;;;22.55;59.27;100884.34;8286277;28;20100;-66
2023/05/20 11:41:14;;;;;;;4.93;4.05;;;;;;;23.33;57.42;100877.19;8287974;28;20468;-66
2023/05/20 11:45:14;;;;;;;6.32;3.58;;;;;;;24.29;56.75;100874.31;8287144;28;20030;-66
2023/05/20 11:49:16;;;;;;;5.63;3.75;;;;;;;23.91;56.08;100873.41;8277327;28;20044;-66
2023/05/20 11:53:18;;;;;;;6.18;3.60;;;;;;;23.67;56.39;100882.41;8283791;28;20053;-66
2023/05/20 11:57:19;;;;;;;5.47;3.65;;;;;;;23.88;56.53;100884.91;8257899;28;20045;-66
2023/05/20 12:01:19;;;;;;;7.25;4.50;;;;;;;23.81;56.25;100879.38;8256187;28;20069;-66
2023/05/20 12:05:20;;;;;;;6.10;4.07;;;;;;;23.24;58.01;100875.69;8265284;28;20046;-66
2023/05/20 12:09:21;;;;;;;7.75;4.43;;;;;;;22.62;59.48;100859.53;8267102;28;20041;-66
2023/05/20 12:13:22;;;;;;;9.45;4.32;;;;;;;22.81;59.27;100859.53;8286879;28;20076;-66
2023/05/20 12:17:23;;;;;;;9.35;4.38;;;;;;;22.66;59.80;100855.31;8287533;28;20152;-62
2023/05/20 12:21:23;;;;;;;8.32;4.20;;;;;;;22.39;60.37;100851.63;8283936;28;20042;-62
2023/05/20 12:25:23;;;;;;;6.95;4.60;;;;;;;22.31;60.75;100856.47;8286753;28;20403;-62
2023/05/20 12:29:24;;;;;;;5.25;3.78;;;;;;;22.35;62.50;100857.78;8258932;28;20050;-63
2023/05/20 12:33:24;;;;;;;8.23;4.47;;;;;;;22.55;61.84;100854.03;8274099;28;20053;-63
2023/05/20 12:37:25;;;;;;;6.88;4.40;;;;;;;22.20;60.00;100868.94;8276360;28;20687;-62
2023/05/20 12:41:25;;;;;;;6.45;4.10;;;;;;;21.91;61.59;100863.75;8274710;28;20064;-62
2023/05/20 12:45:26;;;;;;;13.07;5.72;;;;;;;21.60;62.36;100863.38;8285759;28;20087;-61
2023/05/20 12:49:27;;;;;;;10.23;5.85;;;;;;;21.76;62.67;100854.78;8273977;28;20046;-62
2023/05/20 12:53:27;;;;;;;9.70;6.10;;;;;;;22.02;62.13;100854.88;8281001;28;20052;-61
2023/05/20 12:57:28;;;;;;;6.72;5.10;;;;;;;21.93;61.75;100842.38;8269382;28;20575;-62
2023/05/20 13:01:28;;;;;;;9.10;6.20;;;;;;;21.65;61.53;100855.34;8271726;28;20045;-63
2023/05/20 13:05:28;;;;;;;7.13;5.93;;;;;;;21.77;62.61;100847.41;8271968;28;20033;-62
2023/05/20 13:09:29;;;;;;;6.38;5.32;;;;;;;21.97;62.34;100843.66;8274630;28;20041;-63
2023/05/20 13:13:30;;;;;;;10.13;5.03;;;;;;;22.31;62.56;100835.28;8276781;28;20041;-63
2023/05/20 13:17:30;;;;;;;7.75;5.32;;;;;;;22.60;62.28;100836.84;8273953;28;20124;-63
2023/05/20 13:21:31;;;;;;;8.30;5.28;;;;;;;22.79;61.03;100828.59;8268098;28;20047;-63
2023/05/20 13:25:31;;;;;;;6.38;4.60;;;;;;;22.44;61.91;100821.53;8260690;28;20037;-64
2023/05/20 13:29:31;;;;;;;7.18;4.43;;;;;;;23.05;61.67;100814.78;8270731;28;20045;-60
2023/05/20 13:33:32;;;;;;;5.90;5.38;;;;;;;22.64;60.90;100814.16;8286409;28;20053;-64
2023/05/20 13:37:32;;;;;;;11.10;5.85;;;;;;;22.22;62.72;100808.97;8277676;28;20042;-62
2023/05/20 13:41:33;;;;;;;7.45;5.43;;;;;;;21.73;62.96;100811.13;8256175;28;20049;-62
2023/05/20 13:45:33;;;;;;;8.95;5.43;;;;;;;21.72;64.06;100806.69;8246012;28;20121;-61
2023/05/20 13:49:34;;;;;;;8.13;4.95;;;;;;;22.09;63.10;100797.94;8272366;28;20049;-61
2023/05/20 13:53:34;;;;;;;8.63;4.55;;;;;;;22.46;62.76;100797.38;8266292;28;20071;-61
2023/05/20 13:57:35;;;;;;;6.88;4.38;;;;;;;22.30;62.50;100789.53;8266945;28;20624;-63
2023/05/20 14:01:36;;;;;;;5.15;4.50;;;;;;;22.13;61.61;100793.72;8276517;28;20049;-62
2023/05/20 14:05:36;;;;;;;5.45;4.05;;;;;;;22.08;62.85;100787.13;8296831;28;20061;-61
2023/05/20 14:09:37;;;;;;;4.93;4.40;;;;;;;22.05;61.60;100790.31;8264670;28;20096;-63
2023/05/20 14:13:37;;;;;;;5.25;4.75;;;;;;;21.79;60.79;100791.06;8243941;28;20487;-62
2023/05/20 14:17:38;;;;;;;7.32;4.60;;;;;;;22.06;62.40;100778.22;8273223;28;20134;-61
2023/05/20 14:21:38;;;;;;;7.47;4.47;;;;;;;21.87;62.34;100793.66;8273020;28;20164;-63
2023/05/20 14:25:39;;;;;;;7.85;4.72;;;;;;;21.86;61.85;100769.09;8285431;28;20041;-61
2023/05/20 14:29:40;;;;;;;5.93;4.40;;;;;;;21.64;61.26;100773.81;8280263;28;20049;-61
2023/05/20 14:33:40;;;;;;;6.82;4.10;;;;;;;21.43;62.28;100767.63;8280558;28;20034;-61
2023/05/20 14:37:41;;;;;;;9.40;3.97;;;;;;;21.59;62.24;100767.25;8281078;28;20750;-61
2023/05/20 14:41:41;;;;;;;4.78;3.92;;;;;;;21.78;62.02;100767.38;8266929;28;20045;-60
2023/05/20 14:45:45;;;;;;;7.10;4.05;;;;;;;21.75;62.29;100772.41;8254870;28;20181;-58
2023/05/20 14:49:45;;;;;;;7.10;4.07;;;;;;;21.75;61.56;100765.03;8263841;28;20185;-59
2023/05/20 14:53:46;;;;;;;5.40;4.18;;;;;;;21.75;62.31;100759.50;8248987;28;20038;-60
2023/05/20 14:57:47;;;;;;;5.32;4.18;;;;;;;21.77;62.06;100759.31;8254645;28;20034;-60
2023/05/20 15:01:47;;;;;;;6.97;3.78;;;;;;;21.55;62.01;100765.94;8269033;28;20065;-61
2023/05/20 15:05:48;;;;;;;5.63;4.07;;;;;;;21.49;61.43;100762.13;8262141;28;20046;-60
2023/05/20 15:09:48;;;;;;;4.90;4.38;;;;;;;21.44;62.35;100753.66;8261828;28;20042;-61
2023/05/20 15:13:50;;;;;;;7.93;4.20;;;;;;;21.32;62.69;100766.28;8263325;28;20042;-61
2023/05/20 15:17:50;;;;;;;5.28;4.20;;;;;;;21.28;63.30;100767.72;8254660;28;20038;-61
2023/05/20 15:21:51;;;;;;;7.40;3.90;;;;;;;21.10;62.27;100768.28;8260446;28;20046;-61
2023/05/20 15:25:51;;;;;;;5.75;4.43;;;;;;;21.06;61.91;100771.63;8262708;28;20161;-59
2023/05/20 15:29:51;;;;;;;7.35;4.40;;;;;;;21.09;62.56;100762.97;8257935;28;20536;-60
2023/05/20 15:33:54;;;;;;;6.20;3.83;;;;;;;21.19;62.85;100760.69;8268812;28;20412;-60
2023/05/20 15:37:55;;;;;;;4.57;4.10;;;;;;;21.21;62.95;100753.09;8273307;28;20050;-60
2023/05/20 15:41:57;;;;;;;4.03;3.70;;;;;;;20.99;63.42;100765.25;8263196;28;20046;-60
2023/05/20 15:45:59;;;;;;;5.22;4.07;;;;;;;21.03;63.61;100772.03;8257798;28;20362;-60
2023/05/20 15:50:03;;;;;;;4.60;4.10;;;;;;;20.98;63.60;100769.88;8252940;28;20062;-60
2023/05/20 15:54:04;;;;;;;4.40;4.00;;;;;;;21.00;64.36;100758.69;8261310;28;20054;-60
2023/05/20 15:58:05;;;;;;;4.95;4.07;;;;;;;20.94;64.59;100756.72;8278973;28;20067;-60
2023/05/20 16:02:05;;;;;;;6.30;4.03;;;;;;;20.90;65.22;100755.41;8260794;28;20092;-60
2023/05/20 16:06:06;;;;;;;5.22;4.10;;;;;;;20.82;64.77;100763.81;8243470;28;20468;-60
2023/05/20 16:10:07;;;;;;;6.43;3.55;;;;;;;20.80;65.17;100754.94;8241360;28;20496;-60
2023/05/20 16:14:08;;;;;;;6.18;3.90;;;;;;;20.74;65.13;100748.31;8257454;28;20046;-60
2023/05/20 16:18:08;;;;;;;4.45;3.30;;;;;;;20.69;64.91;100752.72;8256235;28;20053;-60
2023/05/20 16:22:09;;;;;;;6.97;3.60;;;;;;;20.77;65.47;100752.59;8251355;28;20050;-60
2023/05/20 16:26:10;;;;;;;5.88;3.70;;;;;;;20.74;64.77;100744.75;8255629;28;20042;-60
2023/05/20 16:30:11;;;;;;;6.85;3.58;;;;;;;20.67;65.93;100754.81;8255955;28;20046;-62
2023/05/20 16:34:12;;;;;;;7.45;3.63;;;;;;;20.56;65.57;100756.22;8256710;28;20089;-60
2023/05/20 16:38:12;;;;;;;7.18;4.30;;;;;;;20.60;65.68;100759.41;8251083;28;20669;-61
2023/05/20 16:42:13;;;;;;;6.13;4.20;;;;;;;20.59;65.79;100768.72;8256492;28;20041;-59
2023/05/20 16:46:13;;;;;;;4.63;3.80;;;;;;;20.56;64.73;100769.94;8253983;28;20050;-59
2023/05/20 16:50:14;;;;;;;5.68;3.90;;;;;;;20.47;65.58;100776.66;8254466;28;20038;-59
2023/05/20 16:54:14;;;;;;;7.82;4.03;;;;;;;20.68;64.81;100773.03;8255976;28;20046;-59
2023/05/20 16:58:15;;;;;;;5.78;4.28;;;;;;;20.41;66.04;100771.09;8252319;28;20081;-59
2023/05/20 17:02:15;;;;;;;7.85;4.65;;;;;;;20.32;65.97;100783.25;8259843;28;20548;-60
2023/05/20 17:06:16;;;;;;;7.40;4.70;;;;;;;20.27;65.82;100780.25;8260697;28;20049;-59
2023/05/20 17:10:16;;;;;;;5.47;4.20;;;;;;;20.10;66.59;100778.78;8263022;28;20068;-59
2023/05/20 17:14:17;;;;;;;10.27;4.10;;;;;;;20.11;66.68;100769.50;8254004;28;20115;-59
2023/05/20 17:18:17;;;;;;;4.78;4.28;;;;;;;20.05;65.98;100781.25;8256814;28;20030;-59
2023/05/20 17:22:18;;;;;;;5.55;4.50;;;;;;;20.05;66.79;100775.78;8263485;28;20037;-59
2023/05/20 17:26:18;;;;;;;6.25;4.32;;;;;;;20.01;66.34;100774.47;8259352;28;20050;-59
2023/05/20 17:30:19;;;;;;;5.85;4.07;;;;;;;19.98;66.59;100770.22;8266002;28;20497;-59
2023/05/20 17:34:19;;;;;;;5.18;3.92;;;;;;;20.04;66.71;100776.81;8254785;28;20042;-60
2023/05/20 17:38:21;;;;;;;5.45;4.22;;;;;;;20.01;66.75;100774.47;8250001;28;20436;-61
2023/05/20 17:42:21;;;;;;;7.78;4.18;;;;;;;19.96;67.30;100788.78;8257034;28;20064;-61
2023/05/20 17:46:22;;;;;;;5.00;4.07;;;;;;;19.83;67.82;100776.81;8247808;28;20047;-60
2023/05/20 17:50:22;;;;;;;5.97;4.30;;;;;;;19.87;67.35;100778.09;8234308;28;20065;-60
2023/05/20 17:54:23;;;;;;;5.30;4.20;;;;;;;19.87;67.63;100772.63;8240331;28;20472;-60
2023/05/20 17:58:23;;;;;;;9.55;4.43;;;;;;;19.83;67.76;100765.81;8249844;28;20058;-61
2023/05/20 18:02:24;;;;;;;6.47;4.07;;;;;;;19.82;67.99;100780.59;8256428;28;20043;-60
2023/05/20 18:06:25;;;;;;;5.10;4.20;;;;;;;19.76;68.50;100784.13;8230192;28;20333;-60
2023/05/20 18:10:26;;;;;;;5.68;4.43;;;;;;;19.73;68.53;100787.25;8242423;28;20425;-60
2023/05/20 18:14:26;;;;;;;6.20;4.20;;;;;;;19.62;69.29;100795.97;8235853;28;20141;-60
2023/05/20 18:18:26;;;;;;;7.40;4.18;;;;;;;19.55;69.42;100786.81;8250218;28;20592;-60
2023/05/20 18:22:27;;;;;;;6.03;4.18;;;;;;;19.57;69.48;100787.47;8237292;28;20045;-60
2023/05/20 18:26:27;;;;;;;6.10;3.92;;;;;;;19.48;70.05;100793.06;8243877;28;20048;-60
2023/05/20 18:30:28;;;;;;;6.57;4.60;;;;;;;19.48;69.80;100790.31;8241476;28;20043;-61
2023/05/20 18:34:28;;;;;;;8.10;4.40;;;;;;;19.45;69.83;100784.34;8262513;28;20038;-61
2023/05/20 18:38:29;;;;;;;8.57;4.72;;;;;;;19.38;70.33;100788.91;8250478;28;20121;-60
2023/05/20 18:42:29;;;;;;;5.32;4.18;;;;;;;19.36;70.46;100797.31;8294966;28;20057;-61
2023/05/20 18:46:30;;;;;;;5.03;4.00;;;;;;;19.29;70.62;100788.16;8289086;28;20042;-60